Terminal Aerodrome Forecast
Issued by NWS

Home | Current Version | Previous Version | Text Only | Print | Product List | Glossary On
Versions: 1 2 3 4 5 6 7 8 9 10 11 12 13 14 15
000
FTUS44 KOUN 231736
TAFWWR
TAF
KWWR 231736Z 2318/2418 08010KT 2SM BR OVC006
      TEMPO 2318/2320 1/2SM FG OVC003
     FM240200 15008KT 1/2SM -DZ FG VV003
     FM241500 22010G16KT 2SM BR OVC004=

USA.gov is the U.S. government's official web portal to all federal, state and local government web resources and services.